Time;durP1;ratioP1;P1;durP2;ratioP2;P2;SDS_P1;SDS_P2;PMS_P1;PMS_P2;Temp;Humidity;BMP_temperature;BMP_pressure;BME280_temperature;BME280_humidity;BME280_pressure;Samples;Min_cycle;Max_cycle;Signal;HPM_P1;HPM_P2
2022/08/13 17:26:21;;;;;;;4.80;1.10;;;36.10;43.70;;;;;;5111813;27;20407;-52
2022/08/13 17:28:54;;;;;;;2.42;1.00;;;35.70;45.20;;;;;;5068951;28;20041;-57
2022/08/13 17:31:25;;;;;;;4.88;1.30;;;35.70;46.80;;;;;;5049193;28;20051;-55
2022/08/13 17:33:56;;;;;;;7.57;1.42;;;35.80;44.80;;;;;;5051131;28;20037;-52
2022/08/13 17:36:25;;;;;;;4.38;1.40;;;35.80;44.50;;;;;;5050349;28;20147;-47
2022/08/13 17:39:12;;;;;;;6.32;1.33;;;35.90;44.90;;;;;;5054913;28;20051;-54
2022/08/13 17:41:39;;;;;;;5.97;1.42;;;36.10;44.70;;;;;;5050102;28;20396;-47
2022/08/13 17:44:25;;;;;;;4.82;1.23;;;36.10;44.30;;;;;;5052583;28;20036;-52
2022/08/13 17:46:56;;;;;;;5.70;1.25;;;36.20;43.60;;;;;;5050261;28;20030;-52
2022/08/13 17:49:22;;;;;;;3.97;1.20;;;36.30;43.50;;;;;;5050053;28;20037;-53
2022/08/13 17:51:58;;;;;;;3.17;1.25;;;36.40;43.70;;;;;;5050040;28;20495;-53
2022/08/13 17:54:25;;;;;;;3.40;1.33;;;36.30;43.80;;;;;;5055107;28;20083;-48
2022/08/13 17:56:56;;;;;;;4.93;1.20;;;36.30;43.30;;;;;;5049791;28;20041;-52
2022/08/13 17:59:23;;;;;;;7.82;1.30;;;36.20;42.90;;;;;;5053756;28;20488;-46
2022/08/13 18:02:09;;;;;;;3.70;1.25;;;36.20;43.80;;;;;;5048644;28;20615;-51
2022/08/13 18:04:36;;;;;;;5.47;1.20;;;36.20;43.20;;;;;;5051471;28;20585;-48
2022/08/13 18:07:03;;;;;;;2.80;1.10;;;36.10;42.90;;;;;;5049715;28;20485;-51
2022/08/13 18:09:30;;;;;;;4.38;1.45;;;35.90;43.70;;;;;;5052582;28;20055;-55
2022/08/13 18:12:17;;;;;;;3.28;1.30;;;35.80;43.20;;;;;;5049846;28;20099;-52
2022/08/13 18:15:04;;;;;;;4.30;1.30;;;35.70;43.20;;;;;;5052812;28;20120;-52
2022/08/13 18:17:39;;;;;;;4.82;1.50;;;35.50;43.10;;;;;;5049491;28;20049;-53
2022/08/13 18:20:26;;;;;;;5.18;2.30;;;35.40;43.40;;;;;;5051810;28;20049;-55
2022/08/13 18:23:02;;;;;;;4.57;2.00;;;35.30;43.70;;;;;;5049371;28;20072;-53
2022/08/13 18:25:28;;;;;;;6.78;1.95;;;35.00;46.10;;;;;;5048844;28;20083;-51
2022/08/13 18:27:56;;;;;;;5.40;2.10;;;34.70;47.00;;;;;;5049408;28;20049;-51
2022/08/13 18:30:42;;;;;;;4.85;2.13;;;34.60;48.20;;;;;;5049359;28;20403;-53
2022/08/13 18:33:24;;;;;;;4.40;2.20;;;34.00;47.80;;;;;;5049560;28;20037;-54
2022/08/13 18:36:11;;;;;;;5.88;2.00;;;33.40;48.80;;;;;;5042900;28;20115;-56
2022/08/13 18:38:45;;;;;;;4.07;1.67;;;32.80;49.50;;;;;;5034646;28;20045;-50
2022/08/13 18:41:15;;;;;;;4.70;1.88;;;32.30;49.70;;;;;;5035909;28;20045;-56
2022/08/13 18:43:45;;;;;;;7.03;1.80;;;31.90;50.20;;;;;;5035185;28;20049;-55
2022/08/13 18:46:19;;;;;;;3.95;1.70;;;31.50;50.50;;;;;;5038229;28;20037;-58
2022/08/13 18:48:46;;;;;;;4.57;1.85;;;31.20;51.00;;;;;;5034584;28;20041;-55
2022/08/13 18:51:16;;;;;;;6.85;1.90;;;31.00;51.60;;;;;;5035704;28;20492;-53
2022/08/13 18:53:58;;;;;;;7.20;2.00;;;30.70;51.80;;;;;;5036427;28;20072;-53
2022/08/13 18:56:24;;;;;;;5.72;2.10;;;30.40;52.00;;;;;;5035595;28;20430;-54
2022/08/13 18:58:52;;;;;;;4.80;1.80;;;30.20;52.60;;;;;;5035500;28;20416;-53
2022/08/13 19:01:19;;;;;;;5.88;2.15;;;30.00;52.70;;;;;;5034282;28;20046;-55
2022/08/13 19:03:48;;;;;;;10.25;1.90;;;29.90;53.20;;;;;;5035454;28;20068;-48
2022/08/13 19:06:27;;;;;;;7.60;1.90;;;29.70;53.50;;;;;;5035308;28;20052;-51
2022/08/13 19:08:55;;;;;;;4.60;1.77;;;29.60;53.80;;;;;;5029106;28;20515;-55
2022/08/13 19:11:22;;;;;;;4.30;1.58;;;29.40;53.90;;;;;;5028862;28;20037;-53
2022/08/13 19:13:49;;;;;;;4.22;1.60;;;29.30;54.30;;;;;;5035258;28;20036;-52
2022/08/13 19:16:16;;;;;;;5.15;1.83;;;29.10;54.30;;;;;;5035235;28;20041;-49
2022/08/13 19:18:43;;;;;;;4.25;1.98;;;28.90;55.30;;;;;;5035510;28;20045;-52
2022/08/13 19:21:12;;;;;;;8.57;3.00;;;28.80;55.00;;;;;;5035245;28;20049;-57
2022/08/13 19:23:58;;;;;;;5.82;1.50;;;28.60;55.30;;;;;;5040038;28;20041;-54
2022/08/13 19:26:26;;;;;;;5.47;1.80;;;28.50;55.40;;;;;;5040363;28;20044;-52
2022/08/13 19:28:56;;;;;;;7.38;2.10;;;28.40;55.60;;;;;;5034991;28;20464;-54
2022/08/13 19:31:25;;;;;;;4.93;1.90;;;28.30;55.80;;;;;;5034965;28;20480;-48
2022/08/13 19:33:54;;;;;;;5.15;1.80;;;28.10;55.70;;;;;;5034972;28;20045;-49
2022/08/13 19:36:21;;;;;;;10.52;2.28;;;28.00;56.00;;;;;;5034616;28;20049;-50
2022/08/13 19:39:00;;;;;;;5.75;1.90;;;28.00;56.20;;;;;;5034721;28;20083;-51
2022/08/13 19:41:30;;;;;;;7.57;1.92;;;27.80;56.20;;;;;;5034790;28;20447;-52
2022/08/13 19:44:00;;;;;;;4.70;1.95;;;27.70;56.40;;;;;;5034830;28;20041;-55
2022/08/13 19:46:27;;;;;;;7.47;2.10;;;27.60;56.70;;;;;;5033865;28;20037;-55
2022/08/13 19:49:02;;;;;;;;;;;27.50;56.80;;;;;;5033871;28;20124;-50
2022/08/13 19:51:28;;;;;;;5.93;2.20;;;27.40;57.00;;;;;;5040264;28;19921;-51
2022/08/13 19:53:58;;;;;;;5.05;2.17;;;27.40;56.90;;;;;;5034559;28;20072;-51
2022/08/13 19:56:28;;;;;;;5.10;2.03;;;27.30;57.00;;;;;;5034439;28;20412;-53
2022/08/13 19:59:01;;;;;;;9.98;2.50;;;27.20;57.30;;;;;;5033523;28;20554;-51
2022/08/13 20:01:29;;;;;;;7.35;2.42;;;27.10;57.50;;;;;;5034236;28;20064;-54
2022/08/13 20:03:56;;;;;;;5.90;2.58;;;27.00;57.50;;;;;;5034283;28;20515;-51
2022/08/13 20:06:23;;;;;;;4.20;2.40;;;26.90;57.80;;;;;;5034162;28;20048;-48
2022/08/13 20:08:57;;;;;;;4.03;2.00;;;26.80;58.50;;;;;;5034255;28;20041;-48
2022/08/13 20:11:26;;;;;;;5.93;2.40;;;26.80;58.10;;;;;;5034238;28;20044;-49
2022/08/13 20:14:00;;;;;;;6.70;2.20;;;26.70;58.30;;;;;;5034037;28;20467;-53
2022/08/13 20:16:29;;;;;;;5.88;2.03;;;26.60;58.40;;;;;;5034075;28;20136;-53
2022/08/13 20:18:56;;;;;;;4.70;2.10;;;26.60;58.50;;;;;;5034025;28;20074;-49
2022/08/13 20:21:25;;;;;;;5.80;2.22;;;26.50;58.70;;;;;;5037456;28;20119;-53
2022/08/13 20:24:09;;;;;;;7.68;2.25;;;26.40;58.90;;;;;;5033565;28;20521;-54
2022/08/13 20:26:47;;;;;;;6.45;2.13;;;26.40;58.90;;;;;;5033741;28;20126;-55
2022/08/13 20:29:18;;;;;;;3.90;2.00;;;26.30;59.10;;;;;;5038006;28;20045;-52
2022/08/13 20:31:56;;;;;;;5.47;2.30;;;26.30;59.20;;;;;;5033834;28;20128;-51
2022/08/13 20:34:24;;;;;;;3.10;2.15;;;26.20;59.40;;;;;;5033762;28;20041;-48
2022/08/13 20:36:55;;;;;;;7.30;2.03;;;26.10;59.50;;;;;;5033557;28;20033;-50
2022/08/13 20:39:22;;;;;;;6.07;1.90;;;26.10;59.80;;;;;;5033413;28;20045;-53
2022/08/13 20:42:08;;;;;;;7.10;1.95;;;26.00;60.00;;;;;;5030227;28;20516;-55
2022/08/13 20:44:36;;;;;;;5.35;1.80;;;25.90;60.00;;;;;;5033558;28;20417;-53
2022/08/13 20:47:04;;;;;;;4.88;2.22;;;25.90;60.20;;;;;;5033247;28;20431;-53
2022/08/13 20:49:47;;;;;;;6.38;1.90;;;25.80;60.40;;;;;;5032430;28;20083;-56
2022/08/13 20:52:21;;;;;;;4.57;1.60;;;25.80;60.50;;;;;;5032303;28;20110;-52
2022/08/13 20:54:59;;;;;;;6.80;2.20;;;25.70;60.60;;;;;;5028352;28;20077;-55
2022/08/13 20:57:42;;;;;;;3.90;2.10;;;25.60;60.60;;;;;;5033105;28;20049;-51
2022/08/13 21:00:23;;;;;;;8.40;2.28;;;25.50;60.90;;;;;;5029723;28;20092;-55
2022/08/13 21:03:10;;;;;;;3.25;2.00;;;25.40;61.10;;;;;;5033403;28;20065;-52
2022/08/13 21:05:44;;;;;;;4.22;2.13;;;25.40;61.60;;;;;;5032919;28;20041;-56
2022/08/13 21:08:13;;;;;;;2.92;1.63;;;25.30;61.60;;;;;;5033073;28;20044;-53
2022/08/13 21:10:45;;;;;;;6.57;2.15;;;25.20;61.70;;;;;;5033191;28;20043;-57
2022/08/13 21:13:14;;;;;;;5.63;2.17;;;25.20;62.10;;;;;;5033038;28;20152;-53
2022/08/13 21:15:41;;;;;;;4.50;2.20;;;25.10;62.30;;;;;;5032933;28;20453;-52
2022/08/13 21:18:28;;;;;;;6.00;2.20;;;25.00;62.20;;;;;;5033062;28;20107;-50
2022/08/13 21:20:55;;;;;;;4.38;1.92;;;24.90;62.40;;;;;;5032980;28;20072;-50
2022/08/13 21:23:27;;;;;;;5.00;2.03;;;24.90;62.70;;;;;;5033037;28;20057;-49
